Time;durP1;ratioP1;P1;durP2;ratioP2;P2;SDS_P1;SDS_P2;PMS_P1;PMS_P2;Temp;Humidity;BMP_temperature;BMP_pressure;BME280_temperature;BME280_humidity;BME280_pressure;Samples;Min_cycle;Max_cycle;Signal;HPM_P1;HPM_P2
2023/06/25 00:02:04;;;;;;;4.88;4.47;;;;;;;22.38;45.06;99126.78;6887694;28;20448;-82
2023/06/25 00:05:25;;;;;;;4.93;4.10;;;;;;;22.67;44.07;99133.44;6889135;28;20272;-83
2023/06/25 00:08:47;;;;;;;4.70;4.27;;;;;;;22.68;44.03;99133.16;6888013;28;20266;-82
2023/06/25 00:12:09;;;;;;;6.03;4.47;;;;;;;22.61;44.27;99134.53;6888501;28;20658;-82
2023/06/25 00:15:31;;;;;;;7.53;4.90;;;;;;;22.35;45.22;99127.31;6888092;28;20221;-83
2023/06/25 00:18:54;;;;;;;5.00;4.50;;;;;;;22.40;44.85;99119.94;6887806;28;20276;-83
2023/06/25 00:22:15;;;;;;;4.80;4.40;;;;;;;22.41;45.01;99126.22;6888702;28;20589;-83
2023/06/25 00:25:37;;;;;;;5.47;4.77;;;;;;;22.53;44.62;99118.59;6887984;28;20250;-82
2023/06/25 00:28:58;;;;;;;4.67;4.20;;;;;;;22.44;44.83;99129.31;6894016;28;20316;-83
2023/06/25 00:32:20;;;;;;;5.13;4.63;;;;;;;22.45;44.59;99133.69;6911378;28;20205;-83
2023/06/25 00:36:05;;;;;;;4.93;4.43;;;;;;;22.36;44.46;99118.81;6933327;28;20289;-83
2023/06/25 00:39:27;;;;;;;4.70;4.30;;;;;;;21.64;45.75;99062.34;6918941;28;20231;-82
2023/06/25 00:42:56;;;;;;;5.23;4.53;;;;;;;22.11;45.18;99124.28;6918824;28;20237;-82
2023/06/25 00:46:17;;;;;;;4.90;4.40;;;;;;;22.09;45.48;99111.91;6918536;28;20192;-83
2023/06/25 00:49:39;;;;;;;4.93;4.53;;;;;;;21.90;45.95;99097.84;6916667;28;20251;-83
2023/06/25 00:53:02;;;;;;;5.13;4.63;;;;;;;21.89;46.13;99115.41;6917752;28;20297;-83
2023/06/25 00:56:28;;;;;;;5.60;4.63;;;;;;;22.01;45.62;99110.50;6917076;28;20239;-83
2023/06/25 00:59:51;;;;;;;4.60;4.20;;;;;;;21.90;46.01;99119.81;6917091;28;20646;-82
2023/06/25 01:03:24;;;;;;;5.23;4.73;;;;;;;21.91;46.26;99120.66;6917013;28;20289;-83
2023/06/25 01:06:48;;;;;;;4.67;4.20;;;;;;;21.78;46.17;99091.78;6916342;28;20661;-83
2023/06/25 01:10:11;;;;;;;4.87;4.47;;;;;;;21.85;46.31;99105.25;6916334;28;20228;-83
2023/06/25 01:13:33;;;;;;;5.87;5.30;;;;;;;21.65;46.65;99080.47;6917162;28;20353;-83
2023/06/25 01:16:54;;;;;;;6.73;5.13;;;;;;;21.64;46.77;99101.59;6915936;28;20297;-83
2023/06/25 01:20:16;;;;;;;6.70;5.00;;;;;;;21.38;47.60;99096.25;6916953;28;20368;-83
2023/06/25 01:23:39;;;;;;;5.40;4.90;;;;;;;21.42;47.66;99089.97;6916326;28;20791;-83
2023/06/25 01:27:03;;;;;;;5.20;4.67;;;;;;;21.60;46.56;99058.50;6915305;28;20609;-83
2023/06/25 01:30:27;;;;;;;5.93;4.90;;;;;;;21.27;47.79;99082.78;6915995;28;20790;-82
2023/06/25 01:33:49;;;;;;;4.50;4.10;;;;;;;21.30;46.99;99048.22;6892577;28;20208;-83
2023/06/25 01:37:11;;;;;;;6.03;4.90;;;;;;;21.33;47.66;99093.50;6887969;28;20323;-83
2023/06/25 01:40:34;;;;;;;4.80;4.40;;;;;;;21.27;47.69;99078.94;6887667;28;20240;-83
2023/06/25 01:43:55;;;;;;;5.60;5.00;;;;;;;21.27;47.75;99073.47;6888109;28;20212;-83
2023/06/25 01:47:17;;;;;;;5.67;5.03;;;;;;;20.99;48.24;99080.44;6887611;28;20218;-83
2023/06/25 01:50:38;;;;;;;5.70;5.07;;;;;;;21.18;47.17;99060.53;6887629;28;20259;-83
2023/06/25 01:54:00;;;;;;;5.50;5.00;;;;;;;20.77;48.78;99067.63;6888068;28;20302;-83
2023/06/25 01:57:23;;;;;;;5.63;4.97;;;;;;;20.91;48.71;99078.16;6887430;28;20277;-83
2023/06/25 02:00:44;;;;;;;5.57;5.07;;;;;;;20.99;48.56;99075.75;6891372;28;20266;-83
2023/06/25 02:04:06;;;;;;;6.07;5.27;;;;;;;20.55;49.51;99046.94;6892141;28;20365;-83
2023/06/25 02:07:27;;;;;;;7.30;5.83;;;;;;;21.00;48.40;99079.34;6891172;28;20265;-83
2023/06/25 02:10:49;;;;;;;9.97;5.33;;;;;;;20.17;50.76;99014.31;6892029;28;20229;-83
2023/06/25 02:14:12;;;;;;;5.30;4.80;;;;;;;20.84;48.96;99065.50;6891429;28;20209;-83
2023/06/25 02:17:33;;;;;;;5.53;5.03;;;;;;;20.47;49.98;99057.56;6891690;28;20714;-82
2023/06/25 02:20:55;;;;;;;5.67;5.17;;;;;;;20.76;48.93;99064.34;6891820;28;20233;-82
2023/06/25 02:24:16;;;;;;;6.00;5.47;;;;;;;19.79;51.47;99061.00;6891144;28;20298;-83
2023/06/25 02:27:38;;;;;;;5.50;4.70;;;;;;;20.27;50.63;99032.75;6891332;28;20210;-83
2023/06/25 02:31:01;;;;;;;5.20;4.70;;;;;;;20.82;48.79;99053.13;6890836;28;20225;-82
2023/06/25 02:34:22;;;;;;;5.70;5.10;;;;;;;20.53;49.53;99053.78;6892266;28;20215;-82
2023/06/25 02:37:44;;;;;;;5.27;4.80;;;;;;;20.49;49.76;99045.25;6917227;28;20234;-82
2023/06/25 02:41:05;;;;;;;6.23;5.00;;;;;;;20.62;48.95;99049.44;6917505;28;20322;-82
2023/06/25 02:44:27;;;;;;;5.43;4.93;;;;;;;20.58;49.35;99051.88;6917638;28;20273;-83
2023/06/25 02:47:50;;;;;;;5.93;5.33;;;;;;;20.58;49.23;99054.63;6917340;28;20250;-83
2023/06/25 02:51:11;;;;;;;5.80;5.23;;;;;;;20.22;50.40;99054.63;6918072;28;20274;-82
2023/06/25 02:54:33;;;;;;;7.40;5.20;;;;;;;20.20;50.00;99027.50;6918244;28;20295;-83
2023/06/25 02:57:56;;;;;;;5.80;5.20;;;;;;;20.25;49.63;99038.50;6917991;28;20228;-83
2023/06/25 03:01:17;;;;;;;6.00;5.40;;;;;;;19.85;51.20;99029.88;6918547;28;20251;-82
2023/06/25 03:04:40;;;;;;;6.10;5.60;;;;;;;19.61;51.13;98973.00;6918512;28;20216;-82
2023/06/25 03:08:01;;;;;;;5.57;5.07;;;;;;;20.09;50.57;99031.22;6918258;28;20208;-82
2023/06/25 03:11:23;;;;;;;6.20;5.10;;;;;;;20.37;49.64;99041.03;6918145;28;20255;-82
2023/06/25 03:14:44;;;;;;;5.73;5.13;;;;;;;20.32;50.04;99041.84;6918622;28;20309;-83
2023/06/25 03:18:06;;;;;;;5.90;5.40;;;;;;;20.36;49.52;99045.72;6917290;28;20208;-82
2023/06/25 03:21:29;;;;;;;8.30;5.37;;;;;;;20.29;50.05;99038.78;6918731;28;20308;-82
2023/06/25 03:24:50;;;;;;;5.93;5.37;;;;;;;20.08;49.95;99031.47;6918003;28;20299;-82
2023/06/25 03:28:12;;;;;;;5.87;5.07;;;;;;;20.18;50.08;99037.88;6917517;28;20299;-82
2023/06/25 03:31:33;;;;;;;6.10;5.60;;;;;;;19.71;51.98;99038.75;6918283;28;20313;-82
2023/06/25 03:34:55;;;;;;;5.90;5.30;;;;;;;19.22;52.71;98998.84;6912189;28;20204;-83
2023/06/25 03:38:18;;;;;;;7.83;5.87;;;;;;;19.63;52.42;99012.69;6917153;28;20248;-83
2023/06/25 03:41:39;;;;;;;6.00;5.40;;;;;;;19.88;51.60;99034.00;6917821;28;20262;-82
2023/06/25 03:45:01;;;;;;;6.80;6.10;;;;;;;19.99;50.64;99028.34;6918230;28;20294;-82
2023/06/25 03:48:22;;;;;;;5.30;4.80;;;;;;;20.17;50.58;99032.66;6917581;28;20245;-83
2023/06/25 03:51:44;;;;;;;5.97;5.47;;;;;;;19.99;50.26;99022.06;6917376;28;20233;-83
2023/06/25 03:55:08;;;;;;;6.03;5.43;;;;;;;19.82;51.17;99019.44;6917762;28;20896;-83
2023/06/25 03:58:29;;;;;;;5.97;5.47;;;;;;;19.57;52.08;99029.31;6917007;28;20293;-82
2023/06/25 04:01:51;;;;;;;6.67;5.13;;;;;;;19.64;51.95;99022.53;6917462;28;20231;-83
2023/06/25 04:05:12;;;;;;;7.50;5.40;;;;;;;19.61;51.42;99020.34;6917120;28;20211;-82
2023/06/25 04:08:40;;;;;;;7.70;6.43;;;;;;;18.58;53.70;98956.72;6916960;28;20273;-82
2023/06/25 04:12:03;;;;;;;6.33;5.73;;;;;;;19.49;52.36;99033.34;6917119;28;20256;-82
2023/06/25 04:15:24;;;;;;;5.97;5.47;;;;;;;20.04;50.96;99039.34;6917302;28;20255;-83
2023/06/25 04:18:46;;;;;;;7.23;6.53;;;;;;;19.70;51.33;99010.56;6916255;28;20315;-83
2023/06/25 04:22:07;;;;;;;6.03;5.43;;;;;;;20.08;50.76;99032.31;6918121;28;20353;-82
2023/06/25 04:25:30;;;;;;;7.20;5.50;;;;;;;20.07;50.42;99022.47;6917042;28;20294;-82
2023/06/25 04:28:53;;;;;;;6.03;5.40;;;;;;;20.09;50.83;99023.00;6916401;28;20285;-87
2023/06/25 04:32:14;;;;;;;6.57;5.97;;;;;;;19.67;51.70;99013.84;6915525;28;20229;-86
2023/06/25 04:35:36;;;;;;;6.33;5.73;;;;;;;19.88;51.96;99021.13;6889473;28;20237;-83
2023/06/25 04:38:57;;;;;;;6.20;5.57;;;;;;;19.99;51.10;99003.72;6890016;28;20779;-84
2023/06/25 04:42:19;;;;;;;7.03;6.33;;;;;;;20.13;50.83;99004.16;6890181;28;20262;-83
2023/06/25 04:45:42;;;;;;;6.67;5.97;;;;;;;20.72;49.87;99011.16;6890485;28;20244;-84
2023/06/25 04:49:04;;;;;;;6.27;5.77;;;;;;;20.70;49.92;99013.34;6889584;28;20242;-84
2023/06/25 04:52:25;;;;;;;6.10;5.50;;;;;;;20.67;49.74;98971.66;6890352;28;20697;-86
2023/06/25 04:55:47;;;;;;;6.33;5.73;;;;;;;21.40;48.62;99009.03;6890558;28;20514;-85
2023/06/25 04:59:08;;;;;;;6.00;5.50;;;;;;;21.82;47.83;99010.53;6890725;28;20300;-85
2023/06/25 05:02:31;;;;;;;6.17;5.47;;;;;;;22.27;46.40;99009.75;6892585;28;20200;-85
2023/06/25 05:05:53;;;;;;;7.83;5.70;;;;;;;21.83;46.18;98951.78;6892131;28;20661;-83
2023/06/25 05:09:14;;;;;;;6.33;5.73;;;;;;;22.38;46.11;99017.72;6890935;28;20365;-85
2023/06/25 05:12:36;;;;;;;7.20;6.00;;;;;;;22.68;46.06;99005.88;6894748;28;20202;-85
2023/06/25 05:15:57;;;;;;;6.27;5.40;;;;;;;23.05;45.04;99001.66;6892690;28;20239;-85
2023/06/25 05:19:20;;;;;;;6.77;6.07;;;;;;;23.50;44.37;99003.41;6894646;28;20326;-85
2023/06/25 05:22:42;;;;;;;6.00;5.40;;;;;;;23.84;44.00;99007.88;6908736;28;20209;-84
2023/06/25 05:26:03;;;;;;;5.53;5.03;;;;;;;24.40;42.91;99000.84;6899341;28;20296;-89
2023/06/25 05:29:25;;;;;;;6.10;5.37;;;;;;;24.47;41.98;99008.78;6892538;28;20296;-87
2023/06/25 05:32:46;;;;;;;5.50;5.00;;;;;;;24.06;42.45;99007.50;6895482;28;20682;-83
2023/06/25 05:36:09;;;;;;;5.77;5.17;;;;;;;24.35;42.58;99013.84;6897776;28;20318;-84
2023/06/25 05:39:31;;;;;;;6.90;5.33;;;;;;;24.93;41.62;99010.00;6896208;28;20311;-83
2023/06/25 05:42:54;;;;;;;5.93;5.33;;;;;;;25.37;40.88;99005.88;6895969;28;20715;-84
2023/06/25 05:46:15;;;;;;;5.50;5.00;;;;;;;25.84;40.24;99010.50;6903303;28;20196;-83
2023/06/25 05:49:37;;;;;;;6.00;5.40;;;;;;;26.58;39.83;99013.22;6906979;28;20252;-83
2023/06/25 05:52:59;;;;;;;5.47;4.93;;;;;;;27.10;38.07;98999.78;6922955;28;20294;-83
2023/06/25 05:56:21;;;;;;;5.47;4.97;;;;;;;27.14;36.86;98998.00;6922477;28;20367;-83
2023/06/25 05:59:42;;;;;;;5.70;5.20;;;;;;;26.97;35.44;98994.22;6921302;28;20366;-84
2023/06/25 06:03:04;;;;;;;7.00;5.67;;;;;;;27.04;35.35;99001.00;6897199;28;20292;-84
2023/06/25 06:06:25;;;;;;;5.50;5.00;;;;;;;26.55;36.37;99000.00;6892166;28;20347;-83
2023/06/25 06:09:48;;;;;;;6.90;5.57;;;;;;;27.27;35.56;98997.25;6893539;28;20318;-83
2023/06/25 06:13:10;;;;;;;7.20;5.10;;;;;;;27.82;32.91;99000.75;6918088;28;20210;-83
2023/06/25 06:16:31;;;;;;;5.87;5.37;;;;;;;27.32;33.02;98961.09;6917594;28;20292;-82
2023/06/25 06:19:53;;;;;;;5.53;4.97;;;;;;;27.83;31.91;99010.72;6918487;28;20358;-88
2023/06/25 06:23:14;;;;;;;6.20;5.53;;;;;;;27.74;31.66;99001.47;6917002;28;20723;-82
2023/06/25 06:26:37;;;;;;;5.83;5.23;;;;;;;27.68;31.82;98994.41;6896468;28;20219;-82
2023/06/25 06:30:00;;;;;;;6.53;5.33;;;;;;;27.45;32.55;98995.47;6891602;28;20860;-82
2023/06/25 06:33:21;;;;;;;6.63;5.93;;;;;;;28.53;30.63;99001.53;6900234;28;20220;-82
2023/06/25 06:36:43;;;;;;;5.97;5.37;;;;;;;29.75;29.99;98998.63;6917691;28;20299;-82
2023/06/25 06:40:05;;;;;;;5.83;5.17;;;;;;;30.62;27.90;98995.53;6918586;28;20758;-82
2023/06/25 06:43:28;;;;;;;6.73;6.03;;;;;;;29.26;28.91;98996.19;6919025;28;20287;-82
2023/06/25 06:46:49;;;;;;;8.27;6.20;;;;;;;30.67;26.97;98998.16;6921116;28;20275;-82
2023/06/25 06:50:11;;;;;;;6.43;5.83;;;;;;;29.73;27.61;99000.09;6924073;28;20227;-82
2023/06/25 06:53:32;;;;;;;6.50;5.90;;;;;;;29.59;28.04;98997.47;6923604;28;20262;-81
2023/06/25 06:56:54;;;;;;;7.30;6.10;;;;;;;29.29;28.48;98998.34;6924505;28;20273;-82
2023/06/25 07:00:18;;;;;;;6.47;5.87;;;;;;;29.61;28.12;98995.16;6929074;28;20251;-80
2023/06/25 07:03:40;;;;;;;6.83;6.03;;;;;;;28.78;28.89;99006.41;6924002;28;20212;-79
2023/06/25 07:07:02;;;;;;;6.67;5.90;;;;;;;28.01;30.71;98984.81;6923539;28;20316;-80
2023/06/25 07:10:23;;;;;;;6.77;5.97;;;;;;;29.25;28.51;98986.22;6923138;28;20266;-80
2023/06/25 07:13:45;;;;;;;7.43;6.70;;;;;;;30.11;26.07;98999.19;6924175;28;20320;-80
2023/06/25 07:17:08;;;;;;;6.73;6.13;;;;;;;30.14;27.04;98992.94;6922740;28;20258;-80
2023/06/25 07:20:29;;;;;;;6.90;6.23;;;;;;;29.90;27.09;99005.69;6923837;28;20368;-80
2023/06/25 07:23:51;;;;;;;7.37;6.20;;;;;;;29.20;27.91;98993.88;6924061;28;20227;-80
2023/06/25 07:27:12;;;;;;;7.37;6.67;;;;;;;30.68;25.41;98989.50;6923950;28;20299;-80
2023/06/25 07:30:33;;;;;;;6.93;6.33;;;;;;;30.78;25.51;98993.88;6924394;28;20313;-80
2023/06/25 07:33:56;;;;;;;7.43;6.60;;;;;;;31.29;24.88;98996.47;6923384;28;20299;-80
2023/06/25 07:37:18;;;;;;;6.63;6.10;;;;;;;29.49;26.49;99003.28;6921335;28;20231;-80
2023/06/25 07:40:40;;;;;;;6.83;6.23;;;;;;;30.32;26.12;99002.13;6924128;28;20750;-80
2023/06/25 07:44:01;;;;;;;8.73;6.60;;;;;;;30.07;25.42;98995.38;6923390;28;20302;-79
2023/06/25 07:47:23;;;;;;;7.30;6.60;;;;;;;30.36;25.74;98997.53;6923684;28;20245;-80
2023/06/25 07:50:46;;;;;;;6.90;6.20;;;;;;;29.09;27.71;98990.59;6923952;28;20352;-80
2023/06/25 07:54:07;;;;;;;7.07;6.37;;;;;;;29.77;27.03;99001.91;6924848;28;20432;-80
2023/06/25 07:57:29;;;;;;;6.83;6.20;;;;;;;29.72;27.24;98988.16;6923938;28;20346;-80
2023/06/25 08:00:50;;;;;;;7.23;6.33;;;;;;;30.10;27.01;98989.22;6923935;28;20226;-80
2023/06/25 08:04:12;;;;;;;7.83;7.00;;;;;;;31.61;24.91;98984.66;6915943;28;20269;-80
2023/06/25 08:07:35;;;;;;;7.03;6.43;;;;;;;32.62;24.06;98982.22;6915069;28;20691;-80
2023/06/25 08:10:56;;;;;;;7.83;7.10;;;;;;;30.73;24.93;98957.88;6915515;28;20315;-80
2023/06/25 08:14:18;;;;;;;8.00;7.13;;;;;;;31.17;24.59;98965.69;6915727;28;20211;-80
2023/06/25 08:17:39;;;;;;;7.97;7.17;;;;;;;31.81;23.45;98945.69;6914723;28;20750;-79
2023/06/25 08:21:01;;;;;;;7.43;6.80;;;;;;;30.71;24.87;98971.31;6915522;28;20369;-79
2023/06/25 08:24:23;;;;;;;7.80;7.10;;;;;;;31.77;23.25;98958.66;6915082;28;20360;-80
2023/06/25 08:27:45;;;;;;;7.13;6.53;;;;;;;31.13;nan;98967.53;6915154;28;20689;-79
2023/06/25 08:31:07;;;;;;;8.70;6.73;;;;;;;33.57;21.24;98967.59;6908588;28;20318;-79
2023/06/25 08:34:28;;;;;;;7.20;6.50;;;;;;;33.26;21.58;98970.13;6888198;28;20220;-79
2023/06/25 08:37:50;;;;;;;7.77;6.70;;;;;;;33.70;21.21;98952.41;6888619;28;20312;-80
2023/06/25 08:41:12;;;;;;;7.10;6.50;;;;;;;34.52;20.41;98962.91;6890271;28;20281;-80
2023/06/25 08:44:34;;;;;;;7.33;6.63;;;;;;;34.15;19.94;98957.78;6889395;28;20354;-80
2023/06/25 08:47:56;;;;;;;6.77;6.17;;;;;;;33.31;20.84;98957.94;6889687;28;20748;-80
2023/06/25 08:51:22;;;;;;;6.80;6.20;;;;;;;33.58;20.80;98943.22;6890426;28;20312;-80
2023/06/25 08:54:44;;;;;;;7.27;6.67;;;;;;;32.49;21.49;98953.44;6890259;28;20261;-79
2023/06/25 08:58:07;;;;;;;7.27;6.60;;;;;;;33.68;20.60;98928.75;6890843;28;20319;-80
2023/06/25 09:01:28;;;;;;;6.93;6.33;;;;;;;32.82;21.54;98943.06;6889122;28;20229;-81
2023/06/25 09:04:50;;;;;;;7.77;6.93;;;;;;;34.63;20.50;98937.97;6889245;28;20305;-83
2023/06/25 09:08:14;;;;;;;8.83;6.50;;;;;;;32.19;21.23;98946.31;6886313;28;20277;-81
2023/06/25 09:11:39;;;;;;;6.97;6.37;;;;;;;31.31;22.23;98921.75;6888573;28;20353;-82
2023/06/25 09:15:02;;;;;;;7.37;6.67;;;;;;;33.02;20.33;98919.00;6899377;28;20243;-81
2023/06/25 09:18:24;;;;;;;7.70;7.00;;;;;;;32.72;20.18;98943.47;6914171;28;20231;-83
2023/06/25 09:21:46;;;;;;;6.47;5.87;;;;;;;34.13;19.32;98932.16;6914683;28;20825;-81
2023/06/25 09:25:09;;;;;;;7.87;7.17;;;;;;;34.81;18.56;98934.53;6914846;28;20222;-81
2023/06/25 09:28:32;;;;;;;8.20;7.30;;;;;;;32.33;20.51;98930.13;6914854;28;20200;-82
2023/06/25 09:31:55;;;;;;;7.57;6.87;;;;;;;32.68;20.17;98934.19;6914894;28;20228;-82
2023/06/25 09:35:20;;;;;;;8.13;6.73;;;;;;;32.26;20.94;98931.84;6914914;28;20211;-83
2023/06/25 09:38:44;;;;;;;7.80;7.07;;;;;;;33.37;19.18;98929.38;6914091;28;20318;-85
2023/06/25 09:42:07;;;;;;;7.90;6.73;;;;;;;33.88;18.46;98908.19;6914215;28;20615;-84
2023/06/25 09:45:31;;;;;;;7.60;6.77;;;;;;;34.08;18.82;98924.81;6912756;28;20219;-83
2023/06/25 09:48:56;;;;;;;6.47;5.87;;;;;;;33.35;17.95;98916.91;6913445;28;20200;-83
2023/06/25 09:52:19;;;;;;;6.93;6.33;;;;;;;33.67;18.68;98913.16;6914339;28;20199;-84
2023/06/25 09:55:41;;;;;;;7.47;6.67;;;;;;;34.42;17.69;98903.81;6914778;28;20208;-84
2023/06/25 09:59:02;;;;;;;9.03;6.60;;;;;;;32.47;18.79;98919.47;6914114;28;20323;-85
2023/06/25 10:02:24;;;;;;;6.27;5.70;;;;;;;33.76;18.44;98913.81;6914380;28;20208;-82
2023/06/25 10:05:47;;;;;;;6.77;6.17;;;;;;;35.34;16.49;98886.22;6914969;28;20294;-82
2023/06/25 10:09:09;;;;;;;6.70;6.10;;;;;;;34.35;16.54;98903.59;6913749;28;20249;-83
2023/06/25 10:12:33;;;;;;;7.10;6.50;;;;;;;33.06;17.71;98887.22;6939979;28;20226;-82
2023/06/25 10:15:58;;;;;;;6.73;6.13;;;;;;;32.80;17.47;98881.16;6938664;28;20212;-82
2023/06/25 10:19:22;;;;;;;6.90;6.20;;;;;;;33.04;18.15;98880.34;6939095;28;20692;-82
2023/06/25 10:22:45;;;;;;;7.00;6.30;;;;;;;33.26;17.52;98885.47;6943955;28;20352;-81
2023/06/25 10:26:07;;;;;;;7.43;5.80;;;;;;;33.68;17.16;98882.03;6944963;28;20215;-82
2023/06/25 10:29:39;;;;;;;6.57;6.03;;;;;;;34.64;17.18;98887.22;6949377;28;20295;-82
2023/06/25 10:33:01;;;;;;;6.87;5.70;;;;;;;33.39;17.22;98848.78;6909919;28;20287;-82
2023/06/25 10:36:25;;;;;;;7.47;6.77;;;;;;;33.34;17.44;98873.34;6892022;28;20261;-81
2023/06/25 10:39:48;;;;;;;6.93;6.27;;;;;;;32.49;17.39;98874.47;6891490;28;20239;-82
2023/06/25 10:43:10;;;;;;;5.90;5.40;;;;;;;33.28;17.56;98856.03;6891356;28;20578;-82
2023/06/25 10:46:32;;;;;;;6.47;5.87;;;;;;;34.55;15.36;98852.16;6889971;28;20209;-82
2023/06/25 10:49:54;;;;;;;6.50;5.90;;;;;;;33.97;17.27;98852.91;6891375;28;20320;-82
2023/06/25 10:53:17;;;;;;;6.73;6.10;;;;;;;34.29;16.35;98837.81;6891463;28;20212;-82
2023/06/25 10:56:40;;;;;;;6.80;6.20;;;;;;;34.69;16.63;98867.34;6890936;28;20276;-82
2023/06/25 11:00:01;;;;;;;7.10;6.47;;;;;;;35.32;16.34;98840.88;6890656;28;20608;-82
2023/06/25 11:03:24;;;;;;;6.20;5.70;;;;;;;35.52;15.45;98808.88;6891026;28;20576;-82
2023/06/25 11:06:46;;;;;;;6.67;6.07;;;;;;;35.54;15.62;98842.19;6890443;28;20212;-83
2023/06/25 11:10:08;;;;;;;5.80;5.30;;;;;;;34.61;15.67;98848.69;6891263;28;20232;-82
2023/06/25 11:13:32;;;;;;;5.87;5.37;;;;;;;33.12;16.81;98845.84;6892364;28;20216;-82
2023/06/25 11:16:54;;;;;;;6.40;5.77;;;;;;;33.20;16.83;98847.72;6892084;28;20266;-82
2023/06/25 11:20:16;;;;;;;6.60;5.90;;;;;;;33.12;16.33;98845.84;6893194;28;20338;-82
2023/06/25 11:23:37;;;;;;;6.63;6.07;;;;;;;33.59;16.09;98827.38;6894270;28;20281;-82
2023/06/25 11:26:59;;;;;;;6.13;5.63;;;;;;;35.29;15.70;98824.81;6892275;28;20303;-82
2023/06/25 11:30:27;;;;;;;6.43;5.83;;;;;;;35.12;15.36;98822.38;6895597;28;20362;-82
2023/06/25 11:33:54;;;;;;;8.67;6.13;;;;;;;34.59;15.24;98797.84;6894601;28;20208;-82
2023/06/25 11:37:18;;;;;;;6.43;5.80;;;;;;;34.10;16.36;98830.13;6892873;28;20266;-82
2023/06/25 11:40:41;;;;;;;6.97;5.90;;;;;;;34.45;16.26;98816.25;6892993;28;20237;-82
2023/06/25 11:44:03;;;;;;;6.93;6.30;;;;;;;34.02;16.13;98791.09;6890541;28;20213;-82
2023/06/25 11:47:26;;;;;;;7.10;6.10;;;;;;;33.49;16.31;98797.13;6891006;28;20280;-82
2023/06/25 11:50:49;;;;;;;6.53;5.93;;;;;;;33.41;17.04;98814.84;6891887;28;20317;-82
2023/06/25 11:54:11;;;;;;;6.63;5.97;;;;;;;36.09;14.91;98803.28;6895374;28;20293;-82
2023/06/25 11:57:33;;;;;;;6.50;5.90;;;;;;;36.68;14.37;98783.09;6892355;28;20296;-81
2023/06/25 12:00:54;;;;;;;6.20;5.30;;;;;;;35.58;15.68;98793.38;6896607;28;20643;-81
2023/06/25 12:04:18;;;;;;;6.50;5.03;;;;;;;34.98;15.19;98805.22;6917136;28;20253;-82
2023/06/25 12:07:39;;;;;;;7.23;5.40;;;;;;;34.11;15.58;98798.16;6917918;28;20716;-82
2023/06/25 12:11:01;;;;;;;6.37;5.87;;;;;;;34.29;15.46;98793.03;6916810;28;20712;-82
2023/06/25 12:14:22;;;;;;;6.07;5.47;;;;;;;33.84;16.42;98782.19;6916754;28;20307;-82
2023/06/25 12:17:44;;;;;;;6.80;6.20;;;;;;;34.44;16.69;98784.63;6902134;28;20225;-81
2023/06/25 12:21:07;;;;;;;6.77;6.17;;;;;;;34.59;16.78;98771.78;6890489;28;20597;-82
2023/06/25 12:24:28;;;;;;;5.93;5.43;;;;;;;36.03;14.93;98773.06;6891195;28;20271;-82
2023/06/25 12:27:53;;;;;;;6.13;5.53;;;;;;;36.16;14.96;98774.50;6890953;28;20219;-82
2023/06/25 12:31:15;;;;;;;6.40;5.80;;;;;;;36.55;14.88;98778.84;6889340;28;20705;-83
2023/06/25 12:34:37;;;;;;;6.97;6.27;;;;;;;35.05;15.60;98766.16;6889806;28;20208;-84
2023/06/25 12:37:59;;;;;;;6.40;5.80;;;;;;;35.67;15.16;98759.50;6889809;28;20221;-82
2023/06/25 12:41:21;;;;;;;7.13;6.53;;;;;;;34.57;15.51;98758.19;6891565;28;20305;-82
2023/06/25 12:44:43;;;;;;;6.87;6.17;;;;;;;35.30;15.35;98753.50;6923221;28;20187;-81
2023/06/25 12:48:04;;;;;;;6.30;5.70;;;;;;;34.52;15.91;98746.41;6919859;28;20232;-81
2023/06/25 12:51:26;;;;;;;6.73;6.13;;;;;;;34.18;16.61;98756.34;6894847;28;20250;-82
2023/06/25 12:54:49;;;;;;;6.20;5.60;;;;;;;34.27;16.89;98742.19;6894184;28;20297;-82
2023/06/25 12:58:10;;;;;;;6.67;6.07;;;;;;;35.70;16.29;98747.53;6892741;28;20233;-82
2023/06/25 13:01:32;;;;;;;6.20;5.60;;;;;;;35.67;15.68;98749.06;6892583;28;20293;-81
2023/06/25 13:04:53;;;;;;;6.07;5.40;;;;;;;33.76;17.35;98746.78;6893179;28;20264;-82
2023/06/25 13:08:15;;;;;;;5.90;5.40;;;;;;;35.81;15.52;98735.34;6892208;28;20204;-82
2023/06/25 13:11:38;;;;;;;5.93;5.43;;;;;;;35.14;16.33;98738.69;6891694;28;20263;-82
2023/06/25 13:15:00;;;;;;;6.40;5.80;;;;;;;35.57;15.52;98732.84;6892150;28;20299;-82
2023/06/25 13:18:21;;;;;;;6.20;5.70;;;;;;;34.65;16.49;98728.31;6891026;28;20326;-82
2023/06/25 13:21:44;;;;;;;6.50;5.90;;;;;;;35.62;15.84;98735.38;6918109;28;20307;-81
2023/06/25 13:25:06;;;;;;;7.97;5.60;;;;;;;36.30;14.79;98739.09;6941822;28;20222;-81
2023/06/25 13:28:29;;;;;;;6.13;5.60;;;;;;;37.04;14.90;98723.41;6944778;28;20231;-82
2023/06/25 13:31:50;;;;;;;6.33;5.83;;;;;;;37.05;13.92;98719.41;6945087;28;20296;-82
2023/06/25 13:35:12;;;;;;;6.70;5.70;;;;;;;36.89;14.10;98713.16;6944778;28;20215;-82
2023/06/25 13:38:33;;;;;;;6.87;6.27;;;;;;;35.90;15.58;98716.25;6896826;28;20365;-81
2023/06/25 13:41:55;;;;;;;6.67;6.17;;;;;;;36.87;14.95;98707.09;6889546;28;20270;-82
2023/06/25 13:45:18;;;;;;;6.90;6.30;;;;;;;37.05;14.39;98694.91;6888778;28;20238;-82
2023/06/25 13:48:39;;;;;;;6.53;5.93;;;;;;;37.15;14.55;98708.34;6888556;28;20362;-82
2023/06/25 13:52:01;;;;;;;6.50;5.90;;;;;;;37.25;14.67;98687.16;6889234;28;20699;-82
2023/06/25 13:55:22;;;;;;;7.33;6.00;;;;;;;36.47;15.00;98696.44;6890307;28;20245;-81
2023/06/25 13:58:44;;;;;;;7.13;6.53;;;;;;;36.52;14.92;98696.13;6892513;28;20315;-82
2023/06/25 14:02:07;;;;;;;6.23;5.73;;;;;;;37.13;14.30;98690.22;6893645;28;20262;-82
2023/06/25 14:05:28;;;;;;;8.17;5.97;;;;;;;36.92;14.66;98687.91;6893627;28;20208;-82
2023/06/25 14:08:50;;;;;;;6.30;5.70;;;;;;;37.10;14.41;98691.81;6892538;28;20205;-82
2023/06/25 14:12:11;;;;;;;5.97;5.43;;;;;;;36.76;14.68;98676.03;6892994;28;20212;-82
2023/06/25 14:15:34;;;;;;;6.43;5.80;;;;;;;37.02;14.16;98678.00;6892895;28;20296;-81
2023/06/25 14:18:57;;;;;;;7.60;6.40;;;;;;;36.49;14.81;98673.59;6923461;28;20231;-81
2023/06/25 14:22:18;;;;;;;6.50;5.90;;;;;;;36.26;14.65;98684.06;6920258;28;20732;-81
2023/06/25 14:25:40;;;;;;;7.17;6.00;;;;;;;36.31;14.38;98680.94;6921692;28;20298;-81
2023/06/25 14:29:01;;;;;;;7.97;6.37;;;;;;;36.18;14.83;98676.66;6930480;28;20259;-82
2023/06/25 14:32:23;;;;;;;5.97;5.47;;;;;;;36.40;15.00;98657.00;6925226;28;20281;-81
2023/06/25 14:35:46;;;;;;;6.10;5.60;;;;;;;36.62;14.34;98669.38;6923235;28;20358;-81
2023/06/25 14:39:07;;;;;;;6.03;5.50;;;;;;;36.56;14.81;98654.81;6899960;28;20239;-81
2023/06/25 14:42:29;;;;;;;6.20;5.70;;;;;;;36.47;14.62;98671.16;6895894;28;20291;-82
2023/06/25 14:45:51;;;;;;;6.63;6.00;;;;;;;36.81;13.85;98677.69;6893937;28;20791;-82
2023/06/25 14:49:13;;;;;;;7.37;6.23;;;;;;;36.81;14.59;98660.81;6895024;28;20238;-82
2023/06/25 14:52:36;;;;;;;6.77;6.17;;;;;;;36.96;13.77;98674.69;6894969;28;20274;-82
2023/06/25 14:55:57;;;;;;;6.50;5.90;;;;;;;36.46;13.95;98674.31;6894464;28;20228;-81
2023/06/25 14:59:19;;;;;;;7.60;5.93;;;;;;;36.42;14.40;98662.25;6903008;28;20260;-82
2023/06/25 15:02:40;;;;;;;6.90;5.77;;;;;;;36.58;14.74;98655.25;6902834;28;20279;-81
2023/06/25 15:06:02;;;;;;;6.37;5.77;;;;;;;36.45;14.38;98659.50;6896401;28;20201;-82
2023/06/25 15:09:24;;;;;;;6.70;6.10;;;;;;;36.36;14.01;98641.28;6895994;28;20259;-83
2023/06/25 15:12:46;;;;;;;6.97;6.33;;;;;;;36.17;14.43;98635.75;6895826;28;20228;-83
2023/06/25 15:16:07;;;;;;;7.13;5.87;;;;;;;36.56;14.28;98643.56;6895170;28;20232;-83
2023/06/25 15:19:29;;;;;;;6.43;5.83;;;;;;;36.68;14.32;98657.47;6913409;28;20305;-83
2023/06/25 15:22:51;;;;;;;6.97;6.27;;;;;;;36.69;14.30;98636.59;6921490;28;20208;-83
2023/06/25 15:26:14;;;;;;;6.67;6.07;;;;;;;36.43;13.90;98652.63;6920767;28;20627;-83
2023/06/25 15:29:36;;;;;;;6.97;6.27;;;;;;;36.48;14.61;98653.09;6919708;28;20224;-83
2023/06/25 15:32:58;;;;;;;7.53;6.43;;;;;;;36.19;14.67;98642.59;6920990;28;20204;-82
2023/06/25 15:36:19;;;;;;;6.87;6.27;;;;;;;36.30;14.90;98628.72;6920026;28;20234;-83
2023/06/25 15:39:41;;;;;;;6.80;6.03;;;;;;;36.07;14.72;98639.19;6919313;28;20299;-83
2023/06/25 15:43:04;;;;;;;7.77;6.13;;;;;;;36.17;14.68;98644.16;6920167;28;20685;-82
2023/06/25 15:46:25;;;;;;;6.17;5.67;;;;;;;36.00;14.92;98620.22;6918533;28;20287;-82
2023/06/25 15:49:48;;;;;;;6.53;5.93;;;;;;;36.10;15.15;98624.38;6920180;28;20372;-83
2023/06/25 15:53:09;;;;;;;6.47;5.80;;;;;;;36.02;14.29;98629.06;6919159;28;20212;-83